sensor_id;sensor_type;location;lat;lon;timestamp;P1;durP1;ratioP1;P2;durP2;ratioP2
54123;SDS011;55741;53.252;5.788;2023-03-02T00:01:51;15.80;;;14.10;;
54123;SDS011;55741;53.252;5.788;2023-03-02T00:04:30;16.67;;;14.48;;
54123;SDS011;55741;53.252;5.788;2023-03-02T00:07:03;18.05;;;14.63;;
54123;SDS011;55741;53.252;5.788;2023-03-02T00:09:32;19.52;;;13.82;;
54123;SDS011;55741;53.252;5.788;2023-03-02T00:11:58;15.55;;;13.23;;
54123;SDS011;55741;53.252;5.788;2023-03-02T00:14:24;15.07;;;12.70;;
54123;SDS011;55741;53.252;5.788;2023-03-02T00:16:50;16.05;;;12.95;;
54123;SDS011;55741;53.252;5.788;2023-03-02T00:19:16;16.83;;;13.82;;
54123;SDS011;55741;53.252;5.788;2023-03-02T00:21:42;16.95;;;13.20;;
54123;SDS011;55741;53.252;5.788;2023-03-02T00:24:08;15.88;;;12.63;;
54123;SDS011;55741;53.252;5.788;2023-03-02T00:26:34;15.00;;;11.75;;
54123;SDS011;55741;53.252;5.788;2023-03-02T00:29:01;12.07;;;10.32;;
54123;SDS011;55741;53.252;5.788;2023-03-02T00:31:27;13.60;;;9.48;;
54123;SDS011;55741;53.252;5.788;2023-03-02T00:33:53;14.00;;;9.00;;
54123;SDS011;55741;53.252;5.788;2023-03-02T00:36:39;12.80;;;9.10;;
54123;SDS011;55741;53.252;5.788;2023-03-02T00:39:05;15.43;;;8.52;;
54123;SDS011;55741;53.252;5.788;2023-03-02T00:41:30;11.90;;;8.20;;
54123;SDS011;55741;53.252;5.788;2023-03-02T00:43:56;12.43;;;7.47;;
54123;SDS011;55741;53.252;5.788;2023-03-02T00:46:23;13.05;;;8.27;;
54123;SDS011;55741;53.252;5.788;2023-03-02T00:48:52;13.48;;;9.20;;
54123;SDS011;55741;53.252;5.788;2023-03-02T00:51:18;14.48;;;8.68;;
54123;SDS011;55741;53.252;5.788;2023-03-02T00:53:44;10.70;;;8.35;;
54123;SDS011;55741;53.252;5.788;2023-03-02T00:56:11;11.10;;;8.80;;
54123;SDS011;55741;53.252;5.788;2023-03-02T00:58:38;11.32;;;7.97;;
54123;SDS011;55741;53.252;5.788;2023-03-02T01:01:05;10.50;;;8.23;;
54123;SDS011;55741;53.252;5.788;2023-03-02T01:03:33;17.38;;;9.27;;
54123;SDS011;55741;53.252;5.788;2023-03-02T01:06:00;16.90;;;10.50;;
54123;SDS011;55741;53.252;5.788;2023-03-02T01:08:26;16.48;;;10.75;;
54123;SDS011;55741;53.252;5.788;2023-03-02T01:10:52;12.07;;;8.93;;
54123;SDS011;55741;53.252;5.788;2023-03-02T01:13:18;14.85;;;8.50;;
54123;SDS011;55741;53.252;5.788;2023-03-02T01:15:44;17.25;;;8.70;;
54123;SDS011;55741;53.252;5.788;2023-03-02T01:18:13;13.70;;;9.10;;
54123;SDS011;55741;53.252;5.788;2023-03-02T01:20:38;14.48;;;8.80;;
54123;SDS011;55741;53.252;5.788;2023-03-02T01:23:04;12.35;;;7.95;;
54123;SDS011;55741;53.252;5.788;2023-03-02T01:25:32;18.38;;;10.18;;
54123;SDS011;55741;53.252;5.788;2023-03-02T01:27:58;16.95;;;11.45;;
54123;SDS011;55741;53.252;5.788;2023-03-02T01:30:24;12.43;;;9.65;;
54123;SDS011;55741;53.252;5.788;2023-03-02T01:32:49;16.50;;;10.73;;
54123;SDS011;55741;53.252;5.788;2023-03-02T01:35:15;14.48;;;9.05;;
54123;SDS011;55741;53.252;5.788;2023-03-02T01:37:41;12.93;;;8.77;;
54123;SDS011;55741;53.252;5.788;2023-03-02T01:40:08;11.65;;;9.20;;
54123;SDS011;55741;53.252;5.788;2023-03-02T01:42:38;12.95;;;9.85;;
54123;SDS011;55741;53.252;5.788;2023-03-02T01:48:09;16.77;;;9.00;;
54123;SDS011;55741;53.252;5.788;2023-03-02T01:50:36;16.67;;;10.70;;
54123;SDS011;55741;53.252;5.788;2023-03-02T01:53:18;14.77;;;10.98;;
54123;SDS011;55741;53.252;5.788;2023-03-02T01:55:45;15.52;;;11.95;;
54123;SDS011;55741;53.252;5.788;2023-03-02T01:58:12;15.38;;;11.00;;
54123;SDS011;55741;53.252;5.788;2023-03-02T02:00:42;17.70;;;12.40;;
54123;SDS011;55741;53.252;5.788;2023-03-02T02:03:11;17.73;;;11.52;;
54123;SDS011;55741;53.252;5.788;2023-03-02T02:05:54;17.83;;;11.98;;
54123;SDS011;55741;53.252;5.788;2023-03-02T02:08:27;15.82;;;12.75;;
54123;SDS011;55741;53.252;5.788;2023-03-02T02:10:54;17.85;;;10.88;;
54123;SDS011;55741;53.252;5.788;2023-03-02T02:13:20;15.73;;;11.15;;
54123;SDS011;55741;53.252;5.788;2023-03-02T02:15:46;13.80;;;10.25;;
54123;SDS011;55741;53.252;5.788;2023-03-02T02:18:12;14.90;;;10.73;;
54123;SDS011;55741;53.252;5.788;2023-03-02T02:20:39;13.32;;;10.50;;
54123;SDS011;55741;53.252;5.788;2023-03-02T02:23:23;14.07;;;10.98;;
54123;SDS011;55741;53.252;5.788;2023-03-02T02:28:38;13.02;;;10.32;;
54123;SDS011;55741;53.252;5.788;2023-03-02T02:33:45;17.65;;;10.98;;
54123;SDS011;55741;53.252;5.788;2023-03-02T02:36:17;12.77;;;9.70;;
54123;SDS011;55741;53.252;5.788;2023-03-02T02:38:47;17.10;;;10.90;;
54123;SDS011;55741;53.252;5.788;2023-03-02T02:41:23;13.88;;;10.07;;
54123;SDS011;55741;53.252;5.788;2023-03-02T02:43:55;17.02;;;10.00;;
54123;SDS011;55741;53.252;5.788;2023-03-02T02:46:22;14.10;;;10.32;;
54123;SDS011;55741;53.252;5.788;2023-03-02T02:48:49;15.20;;;10.10;;
54123;SDS011;55741;53.252;5.788;2023-03-02T02:51:17;15.52;;;11.07;;
54123;SDS011;55741;53.252;5.788;2023-03-02T02:56:28;18.38;;;10.75;;
54123;SDS011;55741;53.252;5.788;2023-03-02T02:58:58;16.80;;;11.15;;
54123;SDS011;55741;53.252;5.788;2023-03-02T03:04:02;16.83;;;11.45;;
54123;SDS011;55741;53.252;5.788;2023-03-02T03:06:32;19.40;;;11.88;;
54123;SDS011;55741;53.252;5.788;2023-03-02T03:09:06;17.10;;;11.20;;
54123;SDS011;55741;53.252;5.788;2023-03-02T03:11:35;19.15;;;12.00;;
54123;SDS011;55741;53.252;5.788;2023-03-02T03:14:09;20.73;;;12.50;;
54123;SDS011;55741;53.252;5.788;2023-03-02T03:16:37;18.45;;;13.77;;
54123;SDS011;55741;53.252;5.788;2023-03-02T03:19:11;27.42;;;14.02;;
54123;SDS011;55741;53.252;5.788;2023-03-02T03:21:37;23.63;;;14.90;;
54123;SDS011;55741;53.252;5.788;2023-03-02T03:24:03;19.88;;;13.63;;
54123;SDS011;55741;53.252;5.788;2023-03-02T03:26:30;22.52;;;15.07;;
54123;SDS011;55741;53.252;5.788;2023-03-02T03:28:56;26.48;;;17.23;;
54123;SDS011;55741;53.252;5.788;2023-03-02T03:31:23;26.25;;;16.25;;
54123;SDS011;55741;53.252;5.788;2023-03-02T03:33:51;27.92;;;18.20;;
54123;SDS011;55741;53.252;5.788;2023-03-02T03:36:19;26.25;;;18.75;;
54123;SDS011;55741;53.252;5.788;2023-03-02T03:38:45;27.85;;;18.80;;
54123;SDS011;55741;53.252;5.788;2023-03-02T03:41:18;25.95;;;18.88;;
54123;SDS011;55741;53.252;5.788;2023-03-02T03:43:44;28.25;;;19.65;;
54123;SDS011;55741;53.252;5.788;2023-03-02T03:46:10;29.92;;;18.63;;
54123;SDS011;55741;53.252;5.788;2023-03-02T03:48:36;28.30;;;19.42;;
54123;SDS011;55741;53.252;5.788;2023-03-02T03:51:03;31.05;;;21.00;;
54123;SDS011;55741;53.252;5.788;2023-03-02T03:53:29;28.75;;;19.50;;
54123;SDS011;55741;53.252;5.788;2023-03-02T03:55:55;30.80;;;21.40;;
54123;SDS011;55741;53.252;5.788;2023-03-02T03:58:22;34.90;;;20.73;;
54123;SDS011;55741;53.252;5.788;2023-03-02T04:00:49;33.60;;;21.30;;
54123;SDS011;55741;53.252;5.788;2023-03-02T04:03:20;31.63;;;21.33;;
54123;SDS011;55741;53.252;5.788;2023-03-02T04:05:46;35.67;;;24.48;;
54123;SDS011;55741;53.252;5.788;2023-03-02T04:08:13;32.08;;;21.95;;
54123;SDS011;55741;53.252;5.788;2023-03-02T04:10:40;33.33;;;23.30;;
54123;SDS011;55741;53.252;5.788;2023-03-02T04:13:06;31.33;;;22.88;;
54123;SDS011;55741;53.252;5.788;2023-03-02T04:15:33;34.80;;;22.27;;
54123;SDS011;55741;53.252;5.788;2023-03-02T04:17:59;32.13;;;22.52;;
54123;SDS011;55741;53.252;5.788;2023-03-02T04:20:26;34.15;;;23.88;;
54123;SDS011;55741;53.252;5.788;2023-03-02T04:22:53;33.55;;;22.38;;
54123;SDS011;55741;53.252;5.788;2023-03-02T04:25:24;29.55;;;21.75;;
54123;SDS011;55741;53.252;5.788;2023-03-02T04:27:52;34.20;;;23.45;;
54123;SDS011;55741;53.252;5.788;2023-03-02T04:30:20;38.13;;;23.92;;
54123;SDS011;55741;53.252;5.788;2023-03-02T04:32:48;36.22;;;23.50;;
54123;SDS011;55741;53.252;5.788;2023-03-02T04:35:14;35.63;;;24.35;;
54123;SDS011;55741;53.252;5.788;2023-03-02T04:37:41;38.90;;;24.88;;
54123;SDS011;55741;53.252;5.788;2023-03-02T04:40:08;34.45;;;23.17;;
54123;SDS011;55741;53.252;5.788;2023-03-02T04:42:36;34.30;;;22.83;;
54123;SDS011;55741;53.252;5.788;2023-03-02T04:45:02;44.83;;;23.67;;
54123;SDS011;55741;53.252;5.788;2023-03-02T04:47:28;39.35;;;23.60;;
54123;SDS011;55741;53.252;5.788;2023-03-02T04:49:54;38.08;;;24.50;;
54123;SDS011;55741;53.252;5.788;2023-03-02T04:52:21;34.80;;;23.80;;
54123;SDS011;55741;53.252;5.788;2023-03-02T04:54:49;48.47;;;29.38;;
54123;SDS011;55741;53.252;5.788;2023-03-02T04:57:15;50.30;;;36.13;;
54123;SDS011;55741;53.252;5.788;2023-03-02T04:59:44;46.75;;;32.40;;
54123;SDS011;55741;53.252;5.788;2023-03-02T05:02:10;45.75;;;29.15;;
54123;SDS011;55741;53.252;5.788;2023-03-02T05:04:38;42.92;;;27.98;;
54123;SDS011;55741;53.252;5.788;2023-03-02T05:07:05;42.55;;;26.95;;
54123;SDS011;55741;53.252;5.788;2023-03-02T05:09:31;41.83;;;26.55;;
54123;SDS011;55741;53.252;5.788;2023-03-02T05:11:58;43.42;;;28.35;;
54123;SDS011;55741;53.252;5.788;2023-03-02T05:14:25;41.00;;;27.60;;
54123;SDS011;55741;53.252;5.788;2023-03-02T05:16:51;42.45;;;27.73;;
54123;SDS011;55741;53.252;5.788;2023-03-02T05:19:18;44.58;;;29.13;;
54123;SDS011;55741;53.252;5.788;2023-03-02T05:21:44;45.13;;;31.55;;
54123;SDS011;55741;53.252;5.788;2023-03-02T05:24:10;44.45;;;29.02;;
54123;SDS011;55741;53.252;5.788;2023-03-02T05:26:37;43.53;;;29.60;;
54123;SDS011;55741;53.252;5.788;2023-03-02T05:29:03;50.70;;;31.90;;
54123;SDS011;55741;53.252;5.788;2023-03-02T05:31:31;53.63;;;32.70;;
54123;SDS011;55741;53.252;5.788;2023-03-02T05:34:02;48.55;;;32.55;;
54123;SDS011;55741;53.252;5.788;2023-03-02T05:36:29;57.55;;;37.35;;
54123;SDS011;55741;53.252;5.788;2023-03-02T05:38:55;61.17;;;36.97;;
54123;SDS011;55741;53.252;5.788;2023-03-02T05:41:22;62.58;;;36.67;;
54123;SDS011;55741;53.252;5.788;2023-03-02T05:43:48;59.65;;;37.05;;
54123;SDS011;55741;53.252;5.788;2023-03-02T05:46:14;66.18;;;39.33;;
54123;SDS011;55741;53.252;5.788;2023-03-02T05:48:41;70.78;;;40.58;;
54123;SDS011;55741;53.252;5.788;2023-03-02T05:51:08;74.68;;;41.78;;
54123;SDS011;55741;53.252;5.788;2023-03-02T05:53:34;73.72;;;41.13;;
54123;SDS011;55741;53.252;5.788;2023-03-02T05:56:00;80.80;;;44.35;;
54123;SDS011;55741;53.252;5.788;2023-03-02T05:58:25;83.63;;;43.47;;
54123;SDS011;55741;53.252;5.788;2023-03-02T06:00:52;85.85;;;46.10;;
54123;SDS011;55741;53.252;5.788;2023-03-02T06:03:18;89.25;;;47.13;;
54123;SDS011;55741;53.252;5.788;2023-03-02T06:05:49;83.93;;;44.45;;
54123;SDS011;55741;53.252;5.788;2023-03-02T06:08:17;90.57;;;47.28;;
54123;SDS011;55741;53.252;5.788;2023-03-02T06:10:44;96.50;;;47.88;;
54123;SDS011;55741;53.252;5.788;2023-03-02T06:13:10;98.47;;;48.15;;
54123;SDS011;55741;53.252;5.788;2023-03-02T06:15:36;93.10;;;46.78;;
54123;SDS011;55741;53.252;5.788;2023-03-02T06:18:04;102.47;;;51.22;;
54123;SDS011;55741;53.252;5.788;2023-03-02T06:20:30;100.20;;;48.55;;
54123;SDS011;55741;53.252;5.788;2023-03-02T06:22:56;106.35;;;49.47;;
54123;SDS011;55741;53.252;5.788;2023-03-02T06:25:24;105.70;;;51.33;;
54123;SDS011;55741;53.252;5.788;2023-03-02T06:27:50;106.85;;;49.20;;
54123;SDS011;55741;53.252;5.788;2023-03-02T06:30:19;94.25;;;48.33;;
54123;SDS011;55741;53.252;5.788;2023-03-02T06:32:46;89.15;;;45.90;;
54123;SDS011;55741;53.252;5.788;2023-03-02T06:35:13;82.97;;;43.30;;
54123;SDS011;55741;53.252;5.788;2023-03-02T06:37:39;67.10;;;36.88;;
54123;SDS011;55741;53.252;5.788;2023-03-02T06:40:05;69.55;;;35.60;;
54123;SDS011;55741;53.252;5.788;2023-03-02T06:42:41;63.70;;;34.65;;
54123;SDS011;55741;53.252;5.788;2023-03-02T06:45:08;62.90;;;35.22;;
54123;SDS011;55741;53.252;5.788;2023-03-02T06:47:38;56.45;;;33.75;;
54123;SDS011;55741;53.252;5.788;2023-03-02T06:50:06;60.00;;;33.08;;
54123;SDS011;55741;53.252;5.788;2023-03-02T06:52:33;56.38;;;32.35;;
54123;SDS011;55741;53.252;5.788;2023-03-02T06:54:59;55.70;;;32.65;;
54123;SDS011;55741;53.252;5.788;2023-03-02T06:57:25;54.22;;;31.98;;
54123;SDS011;55741;53.252;5.788;2023-03-02T06:59:58;49.85;;;31.48;;
54123;SDS011;55741;53.252;5.788;2023-03-02T07:02:26;53.95;;;32.20;;
54123;SDS011;55741;53.252;5.788;2023-03-02T07:04:52;56.35;;;31.58;;
54123;SDS011;55741;53.252;5.788;2023-03-02T07:07:24;50.28;;;30.95;;
54123;SDS011;55741;53.252;5.788;2023-03-02T07:09:50;48.55;;;29.60;;
54123;SDS011;55741;53.252;5.788;2023-03-02T07:12:16;52.22;;;32.58;;
54123;SDS011;55741;53.252;5.788;2023-03-02T07:14:42;51.75;;;30.33;;
54123;SDS011;55741;53.252;5.788;2023-03-02T07:17:08;54.78;;;32.88;;
54123;SDS011;55741;53.252;5.788;2023-03-02T07:19:34;51.10;;;31.20;;
54123;SDS011;55741;53.252;5.788;2023-03-02T07:22:00;53.28;;;29.70;;
54123;SDS011;55741;53.252;5.788;2023-03-02T07:24:30;50.47;;;30.83;;
54123;SDS011;55741;53.252;5.788;2023-03-02T07:26:56;48.90;;;30.73;;
54123;SDS011;55741;53.252;5.788;2023-03-02T07:29:22;53.75;;;31.70;;
54123;SDS011;55741;53.252;5.788;2023-03-02T07:31:48;51.53;;;30.95;;
54123;SDS011;55741;53.252;5.788;2023-03-02T07:34:19;55.47;;;31.42;;
54123;SDS011;55741;53.252;5.788;2023-03-02T07:36:45;51.28;;;28.35;;
54123;SDS011;55741;53.252;5.788;2023-03-02T07:39:12;48.00;;;30.08;;
54123;SDS011;55741;53.252;5.788;2023-03-02T07:41:37;54.58;;;32.38;;
54123;SDS011;55741;53.252;5.788;2023-03-02T07:44:03;48.45;;;30.13;;
54123;SDS011;55741;53.252;5.788;2023-03-02T07:46:30;54.33;;;30.17;;
54123;SDS011;55741;53.252;5.788;2023-03-02T07:48:56;52.55;;;30.92;;
54123;SDS011;55741;53.252;5.788;2023-03-02T07:51:23;52.95;;;31.15;;
54123;SDS011;55741;53.252;5.788;2023-03-02T07:53:49;48.53;;;31.23;;
54123;SDS011;55741;53.252;5.788;2023-03-02T07:56:15;54.15;;;33.17;;
54123;SDS011;55741;53.252;5.788;2023-03-02T07:58:46;53.22;;;31.35;;
54123;SDS011;55741;53.252;5.788;2023-03-02T08:01:12;47.72;;;28.73;;
54123;SDS011;55741;53.252;5.788;2023-03-02T08:03:37;56.90;;;31.60;;
54123;SDS011;55741;53.252;5.788;2023-03-02T08:06:07;50.72;;;30.80;;
54123;SDS011;55741;53.252;5.788;2023-03-02T08:08:37;53.58;;;30.30;;
54123;SDS011;55741;53.252;5.788;2023-03-02T08:11:07;52.83;;;29.58;;
54123;SDS011;55741;53.252;5.788;2023-03-02T08:13:44;48.75;;;28.05;;
54123;SDS011;55741;53.252;5.788;2023-03-02T08:16:11;46.80;;;28.92;;
54123;SDS011;55741;53.252;5.788;2023-03-02T08:18:39;47.53;;;27.83;;
54123;SDS011;55741;53.252;5.788;2023-03-02T08:21:19;46.80;;;27.48;;
54123;SDS011;55741;53.252;5.788;2023-03-02T08:23:46;46.05;;;27.55;;
54123;SDS011;55741;53.252;5.788;2023-03-02T08:26:12;48.00;;;27.45;;
54123;SDS011;55741;53.252;5.788;2023-03-02T08:28:40;49.65;;;28.13;;
54123;SDS011;55741;53.252;5.788;2023-03-02T08:31:06;47.90;;;26.98;;
54123;SDS011;55741;53.252;5.788;2023-03-02T08:33:33;49.58;;;28.27;;
54123;SDS011;55741;53.252;5.788;2023-03-02T08:36:01;45.42;;;26.48;;
54123;SDS011;55741;53.252;5.788;2023-03-02T08:38:31;51.60;;;27.77;;
54123;SDS011;55741;53.252;5.788;2023-03-02T08:40:58;49.83;;;28.23;;
54123;SDS011;55741;53.252;5.788;2023-03-02T08:43:28;51.92;;;27.60;;
54123;SDS011;55741;53.252;5.788;2023-03-02T08:45:55;47.25;;;26.63;;
54123;SDS011;55741;53.252;5.788;2023-03-02T08:48:22;48.30;;;28.38;;
54123;SDS011;55741;53.252;5.788;2023-03-02T08:50:56;49.45;;;28.10;;
54123;SDS011;55741;53.252;5.788;2023-03-02T08:53:23;47.27;;;27.63;;
54123;SDS011;55741;53.252;5.788;2023-03-02T08:55:50;52.13;;;27.35;;
54123;SDS011;55741;53.252;5.788;2023-03-02T08:58:16;50.42;;;29.27;;
54123;SDS011;55741;53.252;5.788;2023-03-02T09:00:43;49.10;;;27.80;;
54123;SDS011;55741;53.252;5.788;2023-03-02T09:03:09;44.80;;;25.88;;
54123;SDS011;55741;53.252;5.788;2023-03-02T09:05:35;49.58;;;27.15;;
54123;SDS011;55741;53.252;5.788;2023-03-02T09:08:01;44.45;;;26.92;;
54123;SDS011;55741;53.252;5.788;2023-03-02T09:10:29;47.15;;;26.77;;
54123;SDS011;55741;53.252;5.788;2023-03-02T09:12:55;43.33;;;25.48;;
54123;SDS011;55741;53.252;5.788;2023-03-02T09:15:21;46.70;;;26.42;;
54123;SDS011;55741;53.252;5.788;2023-03-02T09:17:47;43.60;;;25.02;;
54123;SDS011;55741;53.252;5.788;2023-03-02T09:20:16;46.75;;;26.80;;
54123;SDS011;55741;53.252;5.788;2023-03-02T09:22:42;47.13;;;22.50;;
54123;SDS011;55741;53.252;5.788;2023-03-02T09:25:13;41.33;;;23.45;;
54123;SDS011;55741;53.252;5.788;2023-03-02T09:27:39;40.45;;;24.30;;
54123;SDS011;55741;53.252;5.788;2023-03-02T09:30:06;39.00;;;24.33;;
54123;SDS011;55741;53.252;5.788;2023-03-02T09:32:33;38.70;;;23.52;;
54123;SDS011;55741;53.252;5.788;2023-03-02T09:34:59;43.15;;;26.25;;
54123;SDS011;55741;53.252;5.788;2023-03-02T09:37:26;42.10;;;25.98;;
54123;SDS011;55741;53.252;5.788;2023-03-02T09:39:52;42.70;;;27.40;;
54123;SDS011;55741;53.252;5.788;2023-03-02T09:55:38;38.33;;;22.65;;
54123;SDS011;55741;53.252;5.788;2023-03-02T09:58:11;37.15;;;23.33;;
54123;SDS011;55741;53.252;5.788;2023-03-02T10:00:41;34.70;;;23.00;;
54123;SDS011;55741;53.252;5.788;2023-03-02T10:03:11;36.00;;;22.08;;
54123;SDS011;55741;53.252;5.788;2023-03-02T10:05:46;35.00;;;23.08;;
54123;SDS011;55741;53.252;5.788;2023-03-02T10:08:17;38.38;;;25.27;;
54123;SDS011;55741;53.252;5.788;2023-03-02T10:10:56;44.25;;;24.73;;
54123;SDS011;55741;53.252;5.788;2023-03-02T10:13:42;36.55;;;24.33;;
54123;SDS011;55741;53.252;5.788;2023-03-02T10:16:46;40.70;;;25.33;;
54123;SDS011;55741;53.252;5.788;2023-03-02T10:22:17;43.75;;;25.48;;
54123;SDS011;55741;53.252;5.788;2023-03-02T10:27:42;42.13;;;23.27;;
54123;SDS011;55741;53.252;5.788;2023-03-02T10:32:53;49.13;;;26.13;;
54123;SDS011;55741;53.252;5.788;2023-03-02T10:35:24;46.67;;;25.35;;
54123;SDS011;55741;53.252;5.788;2023-03-02T10:37:54;37.13;;;22.90;;
54123;SDS011;55741;53.252;5.788;2023-03-02T10:40:27;45.35;;;24.58;;
54123;SDS011;55741;53.252;5.788;2023-03-02T10:43:04;37.78;;;22.77;;
54123;SDS011;55741;53.252;5.788;2023-03-02T10:45:35;37.05;;;22.20;;
54123;SDS011;55741;53.252;5.788;2023-03-02T10:48:05;36.28;;;20.55;;
54123;SDS011;55741;53.252;5.788;2023-03-02T10:50:33;32.17;;;19.85;;
54123;SDS011;55741;53.252;5.788;2023-03-02T10:53:00;37.20;;;20.85;;
54123;SDS011;55741;53.252;5.788;2023-03-02T10:55:29;34.78;;;20.45;;
54123;SDS011;55741;53.252;5.788;2023-03-02T11:00:39;42.10;;;21.63;;
54123;SDS011;55741;53.252;5.788;2023-03-02T11:03:20;42.72;;;23.08;;
54123;SDS011;55741;53.252;5.788;2023-03-02T11:05:47;39.55;;;21.33;;
54123;SDS011;55741;53.252;5.788;2023-03-02T11:08:18;48.78;;;25.73;;
54123;SDS011;55741;53.252;5.788;2023-03-02T11:13:34;44.83;;;24.95;;
54123;SDS011;55741;53.252;5.788;2023-03-02T11:16:20;46.83;;;25.33;;
54123;SDS011;55741;53.252;5.788;2023-03-02T11:18:57;40.10;;;22.48;;
54123;SDS011;55741;53.252;5.788;2023-03-02T11:21:32;41.97;;;24.27;;
54123;SDS011;55741;53.252;5.788;2023-03-02T11:26:43;40.20;;;23.58;;
54123;SDS011;55741;53.252;5.788;2023-03-02T11:35:14;34.72;;;20.90;;
54123;SDS011;55741;53.252;5.788;2023-03-02T11:37:52;35.70;;;20.85;;
54123;SDS011;55741;53.252;5.788;2023-03-02T11:40:31;38.58;;;20.83;;
54123;SDS011;55741;53.252;5.788;2023-03-02T11:43:04;33.53;;;19.73;;
54123;SDS011;55741;53.252;5.788;2023-03-02T11:45:34;31.17;;;18.25;;
54123;SDS011;55741;53.252;5.788;2023-03-02T11:48:23;33.05;;;17.92;;
54123;SDS011;55741;53.252;5.788;2023-03-02T11:51:00;32.88;;;19.20;;
54123;SDS011;55741;53.252;5.788;2023-03-02T11:53:35;32.88;;;19.55;;
54123;SDS011;55741;53.252;5.788;2023-03-02T11:56:12;32.78;;;18.10;;
54123;SDS011;55741;53.252;5.788;2023-03-02T11:58:37;30.50;;;18.02;;
54123;SDS011;55741;53.252;5.788;2023-03-02T12:01:11;28.63;;;17.73;;
54123;SDS011;55741;53.252;5.788;2023-03-02T12:03:45;32.08;;;19.05;;
54123;SDS011;55741;53.252;5.788;2023-03-02T12:17:53;27.90;;;18.52;;
54123;SDS011;55741;53.252;5.788;2023-03-02T12:22:48;35.78;;;17.52;;
54123;SDS011;55741;53.252;5.788;2023-03-02T12:27:43;29.95;;;15.00;;
54123;SDS011;55741;53.252;5.788;2023-03-02T12:32:45;25.83;;;16.58;;
54123;SDS011;55741;53.252;5.788;2023-03-02T12:35:24;26.95;;;15.13;;
54123;SDS011;55741;53.252;5.788;2023-03-02T12:37:52;23.25;;;14.98;;
54123;SDS011;55741;53.252;5.788;2023-03-02T12:43:35;22.10;;;13.13;;
54123;SDS011;55741;53.252;5.788;2023-03-02T12:51:55;14.80;;;9.88;;
54123;SDS011;55741;53.252;5.788;2023-03-02T12:54:34;13.32;;;9.05;;
54123;SDS011;55741;53.252;5.788;2023-03-02T12:57:21;13.50;;;9.10;;
54123;SDS011;55741;53.252;5.788;2023-03-02T12:59:53;11.75;;;8.93;;
54123;SDS011;55741;53.252;5.788;2023-03-02T13:02:24;12.75;;;9.15;;
54123;SDS011;55741;53.252;5.788;2023-03-02T13:05:02;14.15;;;10.15;;
54123;SDS011;55741;53.252;5.788;2023-03-02T13:07:36;12.52;;;9.55;;
54123;SDS011;55741;53.252;5.788;2023-03-02T13:10:19;13.55;;;9.20;;
54123;SDS011;55741;53.252;5.788;2023-03-02T13:12:53;11.38;;;8.02;;
54123;SDS011;55741;53.252;5.788;2023-03-02T13:15:19;15.50;;;8.95;;
54123;SDS011;55741;53.252;5.788;2023-03-02T13:17:51;12.43;;;8.80;;
54123;SDS011;55741;53.252;5.788;2023-03-02T13:20:23;15.20;;;8.90;;
54123;SDS011;55741;53.252;5.788;2023-03-02T13:22:51;16.02;;;9.50;;
54123;SDS011;55741;53.252;5.788;2023-03-02T13:25:27;11.10;;;8.95;;
54123;SDS011;55741;53.252;5.788;2023-03-02T13:27:56;12.95;;;8.88;;
54123;SDS011;55741;53.252;5.788;2023-03-02T13:30:28;13.90;;;9.32;;
54123;SDS011;55741;53.252;5.788;2023-03-02T13:33:03;13.75;;;9.20;;
54123;SDS011;55741;53.252;5.788;2023-03-02T13:35:44;14.88;;;9.75;;
54123;SDS011;55741;53.252;5.788;2023-03-02T13:38:18;12.75;;;9.13;;
54123;SDS011;55741;53.252;5.788;2023-03-02T13:40:47;14.70;;;10.07;;
54123;SDS011;55741;53.252;5.788;2023-03-02T13:48:25;15.52;;;10.35;;
54123;SDS011;55741;53.252;5.788;2023-03-02T13:53:37;12.88;;;9.25;;
54123;SDS011;55741;53.252;5.788;2023-03-02T13:56:07;14.10;;;9.80;;
54123;SDS011;55741;53.252;5.788;2023-03-02T13:58:37;12.98;;;9.40;;
54123;SDS011;55741;53.252;5.788;2023-03-02T14:01:04;13.18;;;9.25;;
54123;SDS011;55741;53.252;5.788;2023-03-02T14:03:31;12.25;;;9.00;;
54123;SDS011;55741;53.252;5.788;2023-03-02T14:05:57;14.23;;;9.20;;
54123;SDS011;55741;53.252;5.788;2023-03-02T14:08:24;14.07;;;9.02;;
54123;SDS011;55741;53.252;5.788;2023-03-02T14:10:51;11.32;;;9.10;;
54123;SDS011;55741;53.252;5.788;2023-03-02T14:13:22;11.93;;;9.52;;
54123;SDS011;55741;53.252;5.788;2023-03-02T14:15:51;10.75;;;8.45;;
54123;SDS011;55741;53.252;5.788;2023-03-02T14:20:52;11.45;;;9.27;;
54123;SDS011;55741;53.252;5.788;2023-03-02T14:23:19;12.95;;;8.30;;
54123;SDS011;55741;53.252;5.788;2023-03-02T14:25:45;11.88;;;8.32;;
54123;SDS011;55741;53.252;5.788;2023-03-02T14:28:17;12.93;;;9.15;;
54123;SDS011;55741;53.252;5.788;2023-03-02T14:30:54;15.07;;;9.07;;
54123;SDS011;55741;53.252;5.788;2023-03-02T14:33:21;12.05;;;8.60;;
54123;SDS011;55741;53.252;5.788;2023-03-02T14:35:48;11.20;;;8.88;;
54123;SDS011;55741;53.252;5.788;2023-03-02T14:38:17;11.60;;;9.20;;
54123;SDS011;55741;53.252;5.788;2023-03-02T14:40:46;9.65;;;8.13;;
54123;SDS011;55741;53.252;5.788;2023-03-02T14:43:16;14.13;;;8.75;;
54123;SDS011;55741;53.252;5.788;2023-03-02T14:45:43;11.13;;;8.80;;
54123;SDS011;55741;53.252;5.788;2023-03-02T14:48:09;11.70;;;8.82;;
54123;SDS011;55741;53.252;5.788;2023-03-02T14:50:37;12.07;;;8.27;;
54123;SDS011;55741;53.252;5.788;2023-03-02T14:53:08;15.60;;;10.38;;
54123;SDS011;55741;53.252;5.788;2023-03-02T14:55:51;14.68;;;10.13;;
54123;SDS011;55741;53.252;5.788;2023-03-02T14:58:18;13.40;;;10.50;;
54123;SDS011;55741;53.252;5.788;2023-03-02T15:00:54;14.90;;;10.25;;
54123;SDS011;55741;53.252;5.788;2023-03-02T15:03:20;14.55;;;9.88;;
54123;SDS011;55741;53.252;5.788;2023-03-02T15:05:55;14.45;;;10.63;;
54123;SDS011;55741;53.252;5.788;2023-03-02T15:08:22;12.27;;;10.15;;
54123;SDS011;55741;53.252;5.788;2023-03-02T15:10:48;13.07;;;9.52;;
54123;SDS011;55741;53.252;5.788;2023-03-02T15:13:15;13.30;;;10.02;;
54123;SDS011;55741;53.252;5.788;2023-03-02T15:15:43;11.20;;;8.73;;
54123;SDS011;55741;53.252;5.788;2023-03-02T15:18:13;15.57;;;9.75;;
54123;SDS011;55741;53.252;5.788;2023-03-02T15:20:43;15.20;;;9.90;;
54123;SDS011;55741;53.252;5.788;2023-03-02T15:23:09;13.45;;;10.65;;
54123;SDS011;55741;53.252;5.788;2023-03-02T15:25:35;15.25;;;11.70;;
54123;SDS011;55741;53.252;5.788;2023-03-02T15:28:02;13.40;;;9.57;;
54123;SDS011;55741;53.252;5.788;2023-03-02T15:30:28;15.48;;;11.13;;
54123;SDS011;55741;53.252;5.788;2023-03-02T15:32:55;14.27;;;10.93;;
54123;SDS011;55741;53.252;5.788;2023-03-02T15:35:23;15.88;;;11.15;;
54123;SDS011;55741;53.252;5.788;2023-03-02T15:37:50;17.15;;;10.32;;
54123;SDS011;55741;53.252;5.788;2023-03-02T15:40:28;13.95;;;10.57;;
54123;SDS011;55741;53.252;5.788;2023-03-02T15:42:54;16.63;;;11.32;;
54123;SDS011;55741;53.252;5.788;2023-03-02T15:45:20;20.20;;;10.95;;
54123;SDS011;55741;53.252;5.788;2023-03-02T15:47:46;21.13;;;11.90;;
54123;SDS011;55741;53.252;5.788;2023-03-02T15:50:27;15.40;;;11.02;;
54123;SDS011;55741;53.252;5.788;2023-03-02T15:52:52;20.00;;;11.57;;
54123;SDS011;55741;53.252;5.788;2023-03-02T15:55:19;16.13;;;11.68;;
54123;SDS011;55741;53.252;5.788;2023-03-02T15:57:45;17.33;;;10.95;;
54123;SDS011;55741;53.252;5.788;2023-03-02T16:00:11;16.90;;;11.20;;
54123;SDS011;55741;53.252;5.788;2023-03-02T16:02:38;19.13;;;12.57;;